createdAt,value
2019-06-20T03:47:47.450Z,40.10
2019-06-20T03:48:33.807Z,40.00
2019-06-20T03:49:20.440Z,40.00
2019-06-20T03:50:07.925Z,39.90
2019-06-20T03:50:54.573Z,39.70
2019-06-20T03:51:40.908Z,39.70
2019-06-20T03:52:27.341Z,39.70
2019-06-20T03:53:13.643Z,39.70
2019-06-20T03:53:59.589Z,39.70
2019-06-20T03:54:45.608Z,39.70
2019-06-20T03:55:33.012Z,39.40
2019-06-20T03:56:19.508Z,39.80
2019-06-20T03:57:06.005Z,39.90
2019-06-20T03:57:52.007Z,39.90
2019-06-20T03:58:38.700Z,39.40
2019-06-20T03:59:25.174Z,39.10
2019-06-20T04:00:11.446Z,39.00
2019-06-20T04:00:57.913Z,39.00
2019-06-20T04:01:44.247Z,39.00
2019-06-20T04:02:30.528Z,39.00
2019-06-20T04:03:17.166Z,39.50
2019-06-20T04:04:03.088Z,39.00
2019-06-20T04:04:49.421Z,39.20
2019-06-20T04:05:35.831Z,39.00
2019-06-20T04:06:21.902Z,39.10
2019-06-20T04:07:08.309Z,39.20
2019-06-20T04:07:54.461Z,39.10
2019-06-20T04:08:40.701Z,39.00
2019-06-20T04:09:26.851Z,38.80
2019-06-20T04:10:12.788Z,38.70
2019-06-20T04:10:59.185Z,38.90
2019-06-20T04:11:45.663Z,39.00
2019-06-20T04:12:31.983Z,38.90
2019-06-20T04:13:18.142Z,39.00
2019-06-20T04:14:04.060Z,39.00
2019-06-20T04:14:50.220Z,38.90
2019-06-20T04:15:36.540Z,38.80
2019-06-20T04:16:22.610Z,38.70
2019-06-20T04:17:08.750Z,38.60
2019-06-20T04:17:54.700Z,38.70
2019-06-20T04:18:40.460Z,38.60
2019-06-20T04:19:26.866Z,38.80
2019-06-20T04:20:13.100Z,38.70
2019-06-20T04:20:59.582Z,38.70
2019-06-20T04:21:45.900Z,38.70
2019-06-20T04:22:31.900Z,38.70
2019-06-20T04:23:18.066Z,38.80
2019-06-20T04:24:04.302Z,38.60
2019-06-20T04:24:50.140Z,38.50
2019-06-20T04:25:36.220Z,38.60
2019-06-20T04:26:22.540Z,38.60
2019-06-20T04:27:08.883Z,38.50
2019-06-20T04:27:55.040Z,38.60
2019-06-20T04:28:41.501Z,38.50
2019-06-20T04:29:27.823Z,38.40
2019-06-20T04:30:13.852Z,38.40
2019-06-20T04:31:00.540Z,38.40
2019-06-20T04:31:46.863Z,38.50
2019-06-20T04:32:33.180Z,38.40
2019-06-20T04:33:18.784Z,38.80
2019-06-20T04:34:05.075Z,38.40
2019-06-20T04:34:51.155Z,38.50
2019-06-20T04:35:37.555Z,38.40
2019-06-20T04:36:23.565Z,38.30
2019-06-20T04:37:09.877Z,38.30
2019-06-20T04:37:55.850Z,38.30
2019-06-20T04:38:41.674Z,38.20
2019-06-20T04:39:27.861Z,38.40
2019-06-20T04:40:14.266Z,38.30
2019-06-20T04:41:00.660Z,38.40
2019-06-20T04:41:47.040Z,38.30
2019-06-20T04:42:33.381Z,38.30
2019-06-20T04:43:19.381Z,38.40
2019-06-20T04:44:05.690Z,38.50
2019-06-20T04:44:52.498Z,38.50
2019-06-20T04:45:38.695Z,38.50
2019-06-20T04:46:25.008Z,38.50
2019-06-20T04:47:10.752Z,38.50
2019-06-20T04:47:56.892Z,38.50
2019-06-20T04:48:43.462Z,38.40
